Time;durP1;ratioP1;P1;durP2;ratioP2;P2;SDS_P1;SDS_P2;PMS_P1;PMS_P2;Temp;Humidity;BMP_temperature;BMP_pressure;BME280_temperature;BME280_humidity;BME280_pressure;Samples;Min_cycle;Max_cycle;Signal;HPM_P1;HPM_P2
2022/10/19 00:02:24;;;;;;;;;;;;;;;21.20;55.81;102450.34;5122850;27;20216;-42
2022/10/19 00:04:50;;;;;;;;;;;;;;;21.22;55.87;102458.38;5123028;27;19931;-40
2022/10/19 00:07:15;;;;;;;;;;;;;;;21.20;55.79;102446.72;5114747;27;20325;-40
2022/10/19 00:09:42;;;;;;;;;;;;;;;21.21;55.71;102457.56;5122555;27;19932;-40
2022/10/19 00:12:08;;;;;;;;;;;;;;;21.21;55.74;102442.88;5107205;28;20026;-40
2022/10/19 00:14:33;;;;;;;;;;;;;;;21.21;55.81;102446.47;5120822;27;19924;-41
2022/10/19 00:16:59;;;;;;;;;;;;;;;21.21;55.64;102434.56;5120864;27;20385;-41
2022/10/19 00:19:25;;;;;;;;;;;;;;;21.20;55.57;102436.50;5122992;27;20088;-42
2022/10/19 00:21:50;;;;;;;;;;;;;;;21.19;55.77;102433.97;5122706;27;19923;-40
2022/10/19 00:24:21;;;;;;;;;;;;;;;21.20;55.77;102438.41;5101750;28;19954;-42
2022/10/19 00:26:46;;;;;;;;;;;;;;;21.19;55.74;102439.50;5117363;27;19924;-40
2022/10/19 00:29:12;;;;;;;;;;;;;;;21.20;55.75;102438.41;5121720;27;20375;-40
2022/10/19 00:31:38;;;;;;;;;;;;;;;21.19;55.87;102437.56;5123739;27;19928;-41
2022/10/19 00:34:03;;;;;;;;;;;;;;;21.20;55.67;102436.50;5122077;27;19935;-40
2022/10/19 00:36:30;;;;;;;;;;;;;;;21.19;55.81;102437.56;5119646;27;19932;-40
2022/10/19 00:38:56;;;;;;;;;;;;;;;21.19;55.67;102440.34;5119571;27;20010;-41
2022/10/19 00:41:22;;;;;;;;;;;;;;;21.20;55.68;102441.16;5102997;28;19970;-41
2022/10/19 00:43:49;;;;;;;;;;;;;;;21.19;55.99;102440.34;5119212;27;20265;-42
2022/10/19 00:46:15;;;;;;;;;;;;;;;21.19;55.64;102439.50;5121437;27;20281;-40
2022/10/19 00:48:40;;;;;;;;;;;;;;;21.20;55.83;102447.56;5124686;27;19931;-41
2022/10/19 00:51:06;;;;;;;;;;;;;;;21.19;55.71;102440.34;5117798;27;20386;-42
2022/10/19 00:53:32;;;;;;;;;;;;;;;21.20;55.69;102441.16;5118532;27;20017;-40
2022/10/19 00:55:58;;;;;;;;;;;;;;;21.19;55.62;102437.56;5105926;28;20279;-41
2022/10/19 00:58:24;;;;;;;;;;;;;;;21.18;55.83;102441.44;5122592;27;19958;-40
2022/10/19 01:00:49;;;;;;;;;;;;;;;21.17;55.71;102437.00;5122475;27;19942;-40
2022/10/19 01:03:15;;;;;;;;;;;;;;;21.18;55.72;102433.13;5121652;27;19923;-41
2022/10/19 01:05:40;;;;;;;;;;;;;;;21.17;55.72;102437.00;5119882;27;19924;-40
2022/10/19 01:08:06;;;;;;;;;;;;;;;21.18;55.58;102423.97;5117999;27;19934;-39
2022/10/19 01:10:36;;;;;;;;;;;;;;;21.19;55.64;102431.19;5117307;27;19976;-40
2022/10/19 01:13:05;;;;;;;;;;;;;;;21.19;55.65;102428.41;5116514;27;19978;-40
2022/10/19 01:18:20;;;;;;;;;;;;;;;21.17;55.66;102428.69;5165928;27;19929;-39
2022/10/19 01:20:52;;;;;;;;;;;;;;;21.18;55.65;102432.28;5154647;27;20053;-41
2022/10/19 01:23:37;;;;;;;;;;;;;;;21.18;55.64;102430.34;5154936;27;19998;-40
2022/10/19 01:26:23;;;;;;;;;;;;;;;21.17;55.65;102428.69;5131358;27;20010;-41
2022/10/19 01:28:54;;;;;;;;;;;;;;;21.18;55.57;102426.75;5133896;27;19979;-40
2022/10/19 01:31:25;;;;;;;;;;;;;;;21.18;55.58;102427.59;5150188;27;19924;-41
2022/10/19 01:34:01;;;;;;;;;;;;;;;21.18;55.61;102432.28;5151841;27;20359;-40
2022/10/19 01:36:31;;;;;;;;;;;;;;;21.18;55.57;102424.81;5151545;27;20594;-39
2022/10/19 01:39:16;;;;;;;;;;;;;;;21.18;55.56;102423.97;5128222;27;20045;-40
2022/10/19 01:42:02;;;;;;;;;;;;;;;21.17;55.58;102417.59;5148380;27;20014;-40
2022/10/19 01:44:30;;;;;;;;;;;;;;;21.17;55.65;102417.59;5136080;27;20022;-39
2022/10/19 01:46:57;;;;;;;;;;;;;;;21.17;55.56;102416.78;5145424;27;20018;-40
2022/10/19 01:49:24;;;;;;;;;;;;;;;21.16;55.66;102417.88;5134535;27;20017;-40
2022/10/19 01:51:51;;;;;;;;;;;;;;;21.17;55.61;102409.28;5152768;27;20435;-39
2022/10/19 01:54:17;;;;;;;;;;;;;;;21.16;55.62;102402.09;5152496;27;20060;-40
2022/10/19 01:56:43;;;;;;;;;;;;;;;21.17;55.59;102400.16;5146628;27;19923;-40
2022/10/19 01:59:08;;;;;;;;;;;;;;;21.16;55.50;102396.56;5132565;27;20142;-39
2022/10/19 02:01:34;;;;;;;;;;;;;;;21.16;55.54;102393.78;5150943;27;19963;-43
2022/10/19 02:04:00;;;;;;;;;;;;;;;21.16;55.54;102396.56;5144448;27;19924;-40
2022/10/19 02:06:25;;;;;;;;;;;;;;;21.17;55.67;102395.44;5146957;27;19927;-40
2022/10/19 02:08:51;;;;;;;;;;;;;;;21.16;55.54;102398.50;5148225;27;20271;-40
2022/10/19 02:11:17;;;;;;;;;;;;;;;21.17;55.55;102402.91;5150400;27;20453;-41
2022/10/19 02:13:43;;;;;;;;;;;;;;;21.17;55.64;102402.91;5146920;27;19984;-41
2022/10/19 02:16:11;;;;;;;;;;;;;;;21.16;55.51;102399.31;5129050;27;19946;-40
2022/10/19 02:18:38;;;;;;;;;;;;;;;21.16;55.62;102396.56;5124624;27;19970;-41
2022/10/19 02:21:04;;;;;;;;;;;;;;;21.16;55.48;102401.25;5132764;27;20491;-40
2022/10/19 02:23:29;;;;;;;;;;;;;;;21.16;55.53;102395.72;5147992;27;19923;-44
2022/10/19 02:25:55;;;;;;;;;;;;;;;21.15;55.64;102392.09;5148980;27;19976;-40
2022/10/19 02:28:20;;;;;;;;;;;;;;;21.16;55.54;102388.25;5142716;27;20278;-41
2022/10/19 02:30:46;;;;;;;;;;;;;;;21.15;55.43;102389.31;5133316;27;20154;-39
2022/10/19 02:33:12;;;;;;;;;;;;;;;21.14;55.49;102382.09;5139084;27;19927;-40
2022/10/19 02:35:37;;;;;;;;;;;;;;;21.15;55.47;102381.00;5132181;27;19924;-41
2022/10/19 02:38:03;;;;;;;;;;;;;;;21.16;55.46;102379.09;5132741;27;19931;-40
2022/10/19 02:40:30;;;;;;;;;;;;;;;21.15;55.44;102375.47;5130296;27;19934;-39
2022/10/19 02:42:58;;;;;;;;;;;;;;;21.15;55.44;102378.22;5135034;27;19959;-40
2022/10/19 02:45:25;;;;;;;;;;;;;;;21.15;55.54;102377.41;5128793;27;20056;-40
2022/10/19 02:47:53;;;;;;;;;;;;;;;21.14;55.63;102368.25;5132289;27;20401;-40
2022/10/19 02:50:19;;;;;;;;;;;;;;;21.14;55.48;102365.47;5129033;27;20287;-40
2022/10/19 02:52:44;;;;;;;;;;;;;;;21.15;55.43;102374.63;5133786;27;19938;-40
2022/10/19 02:55:10;;;;;;;;;;;;;;;21.15;55.46;102367.16;5112268;27;19923;-40
2022/10/19 02:57:36;;;;;;;;;;;;;;;21.15;55.57;102360.78;5134580;27;19923;-40
2022/10/19 03:00:03;;;;;;;;;;;;;;;21.15;55.41;102355.22;5112297;27;19927;-39
2022/10/19 03:02:29;;;;;;;;;;;;;;;21.15;55.52;102355.22;5129376;27;20373;-40
2022/10/19 03:04:54;;;;;;;;;;;;;;;21.14;55.41;102351.63;5129246;27;19928;-43
2022/10/19 03:07:20;;;;;;;;;;;;;;;21.14;55.41;102345.25;5131388;27;19924;-41
2022/10/19 03:09:45;;;;;;;;;;;;;;;21.15;55.46;102349.69;5134828;27;19930;-40
2022/10/19 03:12:11;;;;;;;;;;;;;;;21.14;55.46;102342.50;5133357;27;19931;-41
2022/10/19 03:14:37;;;;;;;;;;;;;;;21.14;55.43;102351.63;5128872;27;20323;-40
2022/10/19 03:17:02;;;;;;;;;;;;;;;21.15;55.47;102355.22;5133023;27;19931;-40
2022/10/19 03:19:28;;;;;;;;;;;;;;;21.14;55.33;102357.16;5134707;27;19923;-40
2022/10/19 03:21:54;;;;;;;;;;;;;;;21.15;55.35;102349.69;5132872;27;20282;-40
2022/10/19 03:24:19;;;;;;;;;;;;;;;21.15;55.65;102352.47;5136898;27;20203;-38
2022/10/19 03:26:45;;;;;;;;;;;;;;;21.14;55.41;102354.41;5128318;27;19931;-40
2022/10/19 03:29:10;;;;;;;;;;;;;;;21.14;55.49;102354.41;5133612;27;20359;-40
2022/10/19 03:31:36;;;;;;;;;;;;;;;21.15;55.34;102355.22;5138789;27;19929;-39
2022/10/19 03:34:01;;;;;;;;;;;;;;;21.14;55.45;102356.34;5135808;27;19927;-40
2022/10/19 03:36:28;;;;;;;;;;;;;;;21.14;55.35;102356.34;5128476;27;20064;-40
2022/10/19 03:38:54;;;;;;;;;;;;;;;21.14;55.44;102357.16;5110907;27;20072;-41
2022/10/19 03:41:20;;;;;;;;;;;;;;;21.13;55.34;102358.28;5113045;27;20422;-39
2022/10/19 03:43:46;;;;;;;;;;;;;;;21.13;55.32;102372.13;5116178;27;19930;-39
2022/10/19 03:46:12;;;;;;;;;;;;;;;21.14;55.40;102372.97;5118069;27;20375;-41
2022/10/19 03:48:37;;;;;;;;;;;;;;;21.13;55.39;102374.91;5130668;27;20321;-41
2022/10/19 03:51:04;;;;;;;;;;;;;;;21.14;55.34;102375.72;5128641;27;19924;-41
2022/10/19 03:53:30;;;;;;;;;;;;;;;21.14;55.35;102372.97;5112826;27;20026;-39
2022/10/19 03:56:06;;;;;;;;;;;;;;;21.14;55.41;102379.34;5114245;27;19924;-39
2022/10/19 03:58:32;;;;;;;;;;;;;;;21.13;55.37;102374.91;5129721;27;19966;-40
2022/10/19 04:00:58;;;;;;;;;;;;;;;21.14;55.45;102370.19;5134307;27;19966;-41
2022/10/19 04:03:23;;;;;;;;;;;;;;;21.13;55.33;102374.91;5134589;27;20382;-42
2022/10/19 04:05:49;;;;;;;;;;;;;;;21.13;55.45;102374.91;5129661;27;19938;-39
2022/10/19 04:08:15;;;;;;;;;;;;;;;21.13;55.34;102374.91;5126498;27;19924;-40
2022/10/19 04:10:40;;;;;;;;;;;;;;;21.13;55.35;102376.84;5130239;27;19931;-40
2022/10/19 04:13:06;;;;;;;;;;;;;;;21.13;55.32;102374.91;5133405;27;19924;-40
2022/10/19 04:15:31;;;;;;;;;;;;;;;21.13;55.23;102374.91;5132681;27;19935;-40
2022/10/19 04:17:57;;;;;;;;;;;;;;;21.13;55.34;102365.75;5129293;27;19924;-41
2022/10/19 04:20:22;;;;;;;;;;;;;;;21.13;55.24;102365.75;5132154;27;19927;-41
2022/10/19 04:22:48;;;;;;;;;;;;;;;21.13;55.28;102374.06;5133400;27;19923;-41
2022/10/19 04:25:14;;;;;;;;;;;;;;;21.12;55.32;102376.00;5136394;27;19930;-42
2022/10/19 04:27:39;;;;;;;;;;;;;;;21.13;55.32;102376.84;5134769;27;20412;-40
2022/10/19 04:30:05;;;;;;;;;;;;;;;21.12;55.35;102376.00;5134713;27;19972;-40
2022/10/19 04:32:31;;;;;;;;;;;;;;;21.12;55.22;102369.63;5128915;27;19924;-39
2022/10/19 04:34:56;;;;;;;;;;;;;;;21.12;55.30;102372.41;5132111;27;21090;-40
2022/10/19 04:37:22;;;;;;;;;;;;;;;21.13;55.34;102374.06;5129974;27;20301;-39
2022/10/19 04:39:47;;;;;;;;;;;;;;;21.13;55.19;102371.28;5133721;27;19931;-42
2022/10/19 04:42:13;;;;;;;;;;;;;;;21.13;55.34;102371.28;5129791;27;19924;-39
2022/10/19 04:44:38;;;;;;;;;;;;;;;21.12;55.19;102373.22;5131737;27;19932;-43
2022/10/19 04:47:04;;;;;;;;;;;;;;;21.11;55.27;102368.75;5129553;27;19979;-40
2022/10/19 04:49:29;;;;;;;;;;;;;;;21.12;55.16;102366.84;5133737;27;19930;-40
2022/10/19 04:51:55;;;;;;;;;;;;;;;21.11;55.21;102356.84;5125429;27;20303;-43
2022/10/19 04:54:20;;;;;;;;;;;;;;;21.12;55.15;102366.84;5131679;27;20168;-39
2022/10/19 04:56:46;;;;;;;;;;;;;;;21.12;55.15;102355.78;5129238;27;20367;-39
2022/10/19 04:59:11;;;;;;;;;;;;;;;21.11;55.20;102349.38;5123772;27;19931;-40
2022/10/19 05:01:37;;;;;;;;;;;;;;;21.11;55.25;102354.91;5133529;27;20017;-41
2022/10/19 05:04:03;;;;;;;;;;;;;;;21.11;55.26;102349.38;5128502;27;20359;-40
2022/10/19 05:06:29;;;;;;;;;;;;;;;21.12;55.18;102353.00;5131231;27;19931;-39
2022/10/19 05:08:54;;;;;;;;;;;;;;;21.11;55.22;102354.06;5124082;27;19928;-41
2022/10/19 05:11:20;;;;;;;;;;;;;;;21.11;55.25;102360.44;5128873;27;19924;-41
2022/10/19 05:13:46;;;;;;;;;;;;;;;21.11;55.13;102357.69;5124769;27;21424;-40
2022/10/19 05:16:12;;;;;;;;;;;;;;;21.11;55.12;102352.13;5109830;27;19923;-40
2022/10/19 05:18:38;;;;;;;;;;;;;;;21.11;55.22;102354.91;5128253;27;20331;-41
2022/10/19 05:21:06;;;;;;;;;;;;;;;21.11;55.13;102351.31;5126695;27;20377;-40
2022/10/19 05:23:31;;;;;;;;;;;;;;;21.09;53.41;102343.28;5113214;27;20383;-41
2022/10/19 05:26:03;;;;;;;;;;;;;;;21.11;52.52;102345.78;5112059;27;19923;-39
2022/10/19 05:28:28;;;;;;;;;;;;;;;21.08;51.76;102347.16;5112094;27;20026;-41
2022/10/19 05:30:54;;;;;;;;;;;;;;;21.08;51.15;102358.22;5122475;27;20248;-40
2022/10/19 05:33:20;;;;;;;;;;;;;;;21.08;50.78;102346.31;5128611;27;19924;-40
2022/10/19 05:35:45;;;;;;;;;;;;;;;21.08;51.00;102349.06;5130700;27;19923;-40
2022/10/19 05:38:11;;;;;;;;;;;;;;;21.09;50.99;102346.03;5125424;27;20296;-39
2022/10/19 05:40:36;;;;;;;;;;;;;;;21.09;51.96;102337.72;5129309;27;19943;-40
2022/10/19 05:43:02;;;;;;;;;;;;;;;21.10;53.13;102339.41;5134204;27;19924;-40
2022/10/19 05:45:27;;;;;;;;;;;;;;;21.09;51.88;102331.34;5121687;27;20299;-40
2022/10/19 05:47:53;;;;;;;;;;;;;;;21.10;52.97;102339.41;5132598;27;19924;-41
2022/10/19 05:50:18;;;;;;;;;;;;;;;21.08;51.70;102341.59;5121035;27;19935;-40
2022/10/19 05:52:44;;;;;;;;;;;;;;;21.08;51.52;102336.06;5125677;27;20311;-40
2022/10/19 05:55:09;;;;;;;;;;;;;;;21.08;52.44;102332.47;5116075;27;19931;-43
2022/10/19 05:57:35;;;;;;;;;;;;;;;21.10;53.00;102338.56;5115176;27;19950;-41
2022/10/19 06:00:03;;;;;;;;;;;;;;;21.10;52.41;102344.09;5087643;27;20009;-40
2022/10/19 06:02:28;;;;;;;;;;;;;;;21.07;51.54;102339.94;5111902;27;20018;-39
2022/10/19 06:04:54;;;;;;;;;;;;;;;21.07;51.43;102337.16;5109826;27;19928;-42
2022/10/19 06:07:19;;;;;;;;;;;;;;;21.10;52.45;102330.25;5109257;27;19924;-42
2022/10/19 06:09:45;;;;;;;;;;;;;;;21.09;52.03;102326.66;5124013;27;19931;-39
2022/10/19 06:12:10;;;;;;;;;;;;;;;21.08;52.84;102333.28;5119808;27;19968;-41
2022/10/19 06:14:36;;;;;;;;;;;;;;;21.09;52.57;102325.81;5119517;27;19980;-43
2022/10/19 06:17:01;;;;;;;;;;;;;;;21.09;52.85;102323.88;5116183;27;20437;-40
2022/10/19 06:19:27;;;;;;;;;;;;;;;21.09;53.49;102329.41;5131323;27;19931;-41
2022/10/19 06:21:53;;;;;;;;;;;;;;;21.09;53.61;102334.97;5121599;27;19931;-40
2022/10/19 06:24:18;;;;;;;;;;;;;;;20.97;52.15;102337.84;5115041;27;19968;-41
2022/10/19 06:26:44;;;;;;;;;;;;;;;21.07;53.04;102337.16;5124914;27;19932;-39
2022/10/19 06:29:09;;;;;;;;;;;;;;;21.09;52.30;102346.03;5125932;27;19923;-40
2022/10/19 06:31:35;;;;;;;;;;;;;;;21.11;52.87;102354.91;5116791;27;19923;-40
2022/10/19 06:34:01;;;;;;;;;;;;;;;21.10;53.85;102358.78;5116805;27;19931;-40
2022/10/19 06:36:27;;;;;;;;;;;;;;;21.09;52.87;102350.75;5096147;27;19996;-40
2022/10/19 06:38:53;;;;;;;;;;;;;;;21.12;53.09;102347.47;5103052;28;19927;-40
2022/10/19 06:41:18;;;;;;;;;;;;;;;21.12;53.34;102342.75;5115695;27;19924;-40
2022/10/19 06:43:47;;;;;;;;;;;;;;;21.12;53.12;102344.69;5120106;27;19977;-41
2022/10/19 06:46:16;;;;;;;;;;;;;;;21.12;53.15;102348.28;5115739;27;20014;-41
2022/10/19 06:48:41;;;;;;;;;;;;;;;21.13;53.13;102346.38;5095496;27;19988;-41
2022/10/19 06:51:07;;;;;;;;;;;;;;;21.13;53.41;102341.66;5089165;27;19999;-40
2022/10/19 06:53:33;;;;;;;;;;;;;;;21.13;53.13;102338.88;5112832;27;19943;-42
2022/10/19 06:56:00;;;;;;;;;;;;;;;21.13;53.15;102338.06;5094618;28;19994;-39
2022/10/19 06:58:26;;;;;;;;;;;;;;;21.14;52.64;102336.94;5093847;27;19943;-39
2022/10/19 07:00:54;;;;;;;;;;;;;;;21.14;52.87;102325.88;5108803;27;19928;-40
2022/10/19 07:03:19;;;;;;;;;;;;;;;21.14;52.67;102323.94;5108318;27;19962;-39
2022/10/19 07:05:51;;;;;;;;;;;;;;;21.15;52.67;102328.38;5095898;27;19931;-41
2022/10/19 07:08:16;;;;;;;;;;;;;;;21.15;52.87;102324.75;5090502;27;20014;-43
2022/10/19 07:10:42;;;;;;;;;;;;;;;21.16;52.83;102329.22;5106400;27;19931;-40
2022/10/19 07:13:07;;;;;;;;;;;;;;;21.16;52.42;102337.53;5103036;27;20371;-40
2022/10/19 07:15:38;;;;;;;;;;;;;;;21.17;52.61;102347.50;5108080;27;20399;-41
2022/10/19 07:18:03;;;;;;;;;;;;;;;21.15;52.79;102350.53;5108836;27;20457;-40
2022/10/19 07:20:29;;;;;;;;;;;;;;;21.02;51.02;102357.31;5108848;27;19931;-43
2022/10/19 07:22:54;;;;;;;;;;;;;;;20.96;51.97;102355.59;5107548;27;20214;-40
2022/10/19 07:25:20;;;;;;;;;;;;;;;21.10;52.52;102353.25;5111565;27;19947;-41
2022/10/19 07:27:46;;;;;;;;;;;;;;;21.14;52.13;102343.31;5111186;27;19934;-40
2022/10/19 07:30:11;;;;;;;;;;;;;;;21.14;52.01;102354.41;5116240;27;20306;-40
2022/10/19 07:32:37;;;;;;;;;;;;;;;21.16;52.16;102360.53;5122079;27;19936;-41
2022/10/19 07:35:02;;;;;;;;;;;;;;;21.17;52.48;102367.75;5115829;27;20303;-39
2022/10/19 07:37:28;;;;;;;;;;;;;;;21.17;52.51;102364.13;5112677;27;19932;-40
2022/10/19 07:39:53;;;;;;;;;;;;;;;21.17;52.35;102356.66;5113092;27;19928;-40
2022/10/19 07:42:19;;;;;;;;;;;;;;;21.19;52.70;102356.38;5118098;27;19927;-42
2022/10/19 07:44:45;;;;;;;;;;;;;;;21.05;52.21;102347.66;5111862;27;20571;-39
2022/10/19 07:47:10;;;;;;;;;;;;;;;21.04;52.43;102351.53;5110798;27;19968;-38
2022/10/19 07:49:36;;;;;;;;;;;;;;;21.16;52.69;102345.84;5114405;27;20327;-41
2022/10/19 07:52:01;;;;;;;;;;;;;;;21.20;52.75;102349.75;5114144;27;19931;-40
2022/10/19 07:54:27;;;;;;;;;;;;;;;21.21;52.73;102354.22;5111768;27;19934;-41
2022/10/19 07:56:52;;;;;;;;;;;;;;;21.22;52.52;102358.66;5112438;27;20126;-40
2022/10/19 07:59:18;;;;;;;;;;;;;;;21.22;52.00;102364.19;5114760;27;19938;-40
2022/10/19 08:01:44;;;;;;;;;;;;;;;21.19;51.83;102360.00;5109751;27;20362;-42
2022/10/19 08:04:09;;;;;;;;;;;;;;;21.18;51.54;102357.50;5107302;27;19954;-41
2022/10/19 08:06:55;;;;;;;;;;;;;;;21.20;52.00;102355.28;5087998;27;20031;-41
2022/10/19 08:09:20;;;;;;;;;;;;;;;21.19;51.62;102354.44;5109469;27;19939;-41
2022/10/19 08:12:06;;;;;;;;;;;;;;;21.11;51.48;102343.81;5082405;27;20353;-39
2022/10/19 08:14:31;;;;;;;;;;;;;;;21.18;51.18;102333.38;5077878;27;19932;-42
2022/10/19 08:16:57;;;;;;;;;;;;;;;21.22;51.28;102339.25;5087039;27;20003;-40
2022/10/19 08:19:23;;;;;;;;;;;;;;;21.21;51.28;102340.34;5087628;27;20473;-43
2022/10/19 08:21:48;;;;;;;;;;;;;;;21.21;51.26;102332.06;5110593;27;19923;-40
2022/10/19 08:24:15;;;;;;;;;;;;;;;21.20;51.45;102331.22;5098134;27;19992;-40
2022/10/19 08:26:40;;;;;;;;;;;;;;;21.20;51.17;102339.53;5097319;27;20500;-39
2022/10/19 08:29:07;;;;;;;;;;;;;;;21.15;50.79;102333.06;5115378;27;19970;-39
2022/10/19 08:31:33;;;;;;;;;;;;;;;21.19;50.85;102339.75;5087296;27;20022;-41
2022/10/19 08:33:58;;;;;;;;;;;;;;;21.21;51.05;102343.97;5104284;27;20015;-41
2022/10/19 08:36:24;;;;;;;;;;;;;;;21.22;51.42;102333.72;5102172;27;19930;-39
2022/10/19 08:38:50;;;;;;;;;;;;;;;21.22;51.53;102334.53;5085988;27;20021;-40
2022/10/19 08:41:36;;;;;;;;;;;;;;;21.22;51.38;102330.94;5103381;27;20210;-40
2022/10/19 08:44:05;;;;;;;;;;;;;;;21.19;51.10;102318.44;5096501;27;19998;-41
2022/10/19 08:46:55;;;;;;;;;;;;;;;21.22;51.37;102311.56;5113369;27;19924;-41
2022/10/19 08:49:21;;;;;;;;;;;;;;;21.21;51.04;102313.50;5099242;27;20025;-39
2022/10/19 08:51:49;;;;;;;;;;;;;;;21.21;51.09;102321.78;5091595;28;20386;-40
2022/10/19 08:54:15;;;;;;;;;;;;;;;21.11;50.24;102318.06;5109945;27;19962;-40
2022/10/19 08:56:43;;;;;;;;;;;;;;;21.16;50.13;102302.34;5096458;27;20283;-40
2022/10/19 08:59:29;;;;;;;;;;;;;;;21.14;49.79;102307.31;5095784;27;19967;-39
2022/10/19 09:01:58;;;;;;;;;;;;;;;21.20;49.89;102299.88;5114871;27;20012;-41
2022/10/19 09:04:43;;;;;;;;;;;;;;;21.23;50.09;102302.13;5113613;27;20469;-41
2022/10/19 09:07:26;;;;;;;;;;;;;;;21.20;50.01;102283.25;5118865;27;19973;-41
2022/10/19 09:10:00;;;;;;;;;;;;;;;21.16;49.45;102284.91;5101730;27;19974;-42
2022/10/19 09:12:46;;;;;;;;;;;;;;;21.18;49.20;102286.28;5114864;27;20065;-42
2022/10/19 09:15:12;;;;;;;;;;;;;;;21.21;49.92;102277.47;5091599;27;20635;-42
2022/10/19 09:17:37;;;;;;;;;;;;;;;21.21;49.97;102274.69;5096834;27;20574;-40
2022/10/19 09:20:20;;;;;;;;;;;;;;;21.22;49.90;102272.75;5110720;27;19942;-40
2022/10/19 09:22:45;;;;;;;;;;;;;;;21.23;49.99;102271.66;5114568;27;19978;-39
2022/10/19 09:25:12;;;;;;;;;;;;;;;21.23;49.91;102271.66;5090605;28;20199;-40
2022/10/19 09:27:38;;;;;;;;;;;;;;;21.23;49.93;102274.44;5100278;27;20434;-42
2022/10/19 09:30:05;;;;;;;;;;;;;;;21.24;50.17;102279.72;5098814;27;19955;-40
2022/10/19 09:32:31;;;;;;;;;;;;;;;21.23;50.14;102280.81;5111606;27;20363;-39
2022/10/19 09:35:01;;;;;;;;;;;;;;;21.27;50.56;102279.19;5108222;27;19963;-42
2022/10/19 09:37:27;;;;;;;;;;;;;;;21.28;50.28;102278.06;5102620;27;19962;-40
2022/10/19 09:39:53;;;;;;;;;;;;;;;21.26;50.12;102271.97;5109514;27;19993;-40
2022/10/19 09:42:29;;;;;;;;;;;;;;;21.24;49.56;102273.31;5095289;27;20018;-40
2022/10/19 09:44:55;;;;;;;;;;;;;;;21.23;49.65;102271.66;5096748;27;20052;-42
2022/10/19 09:47:31;;;;;;;;;;;;;;;21.25;49.75;102275.00;5108778;27;20186;-40
2022/10/19 09:50:16;;;;;;;;;;;;;;;21.20;49.40;102269.41;5110421;27;20036;-41
2022/10/19 09:52:43;;;;;;;;;;;;;;;21.22;49.06;102264.44;5105538;27;19927;-40
2022/10/19 09:57:56;;;;;;;;;;;;;;;21.14;47.25;102262.16;5165532;27;19946;-40
2022/10/19 10:00:23;;;;;;;;;;;;;;;21.22;47.73;102258.91;5112801;27;20058;-41
2022/10/19 10:02:49;;;;;;;;;;;;;;;21.22;48.09;102265.28;5134280;27;20123;-40
2022/10/19 10:05:15;;;;;;;;;;;;;;;21.23;48.20;102264.19;5126265;27;20010;-39
2022/10/19 10:07:40;;;;;;;;;;;;;;;21.26;48.54;102257.28;5114695;27;20044;-40
2022/10/19 10:10:08;;;;;;;;;;;;;;;21.27;48.62;102258.94;5122974;27;19924;-40
2022/10/19 10:12:34;;;;;;;;;;;;;;;21.25;49.05;102256.47;5127179;27;20014;-40
2022/10/19 10:15:01;;;;;;;;;;;;;;;21.18;47.99;102255.81;5125732;27;20367;-40
2022/10/19 10:17:27;;;;;;;;;;;;;;;21.25;48.18;102248.16;5110589;27;20584;-42
2022/10/19 10:20:03;;;;;;;;;;;;;;;21.27;48.38;102254.25;5135358;27;20461;-40
2022/10/19 10:22:32;;;;;;;;;;;;;;;21.28;48.22;102263.38;5132072;27;20628;-41
2022/10/19 10:24:58;;;;;;;;;;;;;;;20.66;47.44;102261.06;5113242;27;19931;-39
2022/10/19 10:27:26;;;;;;;;;;;;;;;20.98;46.82;102258.38;5126863;27;20310;-40
2022/10/19 10:29:53;;;;;;;;;;;;;;;21.12;47.45;102251.34;5128485;27;19959;-40
2022/10/19 10:32:19;;;;;;;;;;;;;;;21.18;47.58;102241.97;5120912;27;20018;-40
2022/10/19 10:34:45;;;;;;;;;;;;;;;21.22;47.59;102242.28;5121246;27;19931;-40
2022/10/19 10:37:20;;;;;;;;;;;;;;;21.29;47.74;102234.59;5129974;27;19923;-42
2022/10/19 10:39:45;;;;;;;;;;;;;;;21.36;48.92;102231.63;5123302;27;19954;-41
2022/10/19 10:42:14;;;;;;;;;;;;;;;21.41;49.85;102231.66;5127866;27;19932;-40
2022/10/19 10:44:42;;;;;;;;;;;;;;;21.43;49.40;102232.25;5124836;27;20432;-41
2022/10/19 10:47:12;;;;;;;;;;;;;;;21.41;49.29;102223.34;5118261;27;20026;-40
2022/10/19 10:49:40;;;;;;;;;;;;;;;21.40;50.05;102227.22;5108544;27;19971;-42
2022/10/19 10:52:08;;;;;;;;;;;;;;;21.36;49.47;102223.31;5129773;27;20030;-41
2022/10/19 10:54:34;;;;;;;;;;;;;;;21.30;48.71;102223.25;5112197;27;20006;-41
2022/10/19 10:57:11;;;;;;;;;;;;;;;21.31;49.42;102221.31;5132861;27;20027;-40
2022/10/19 10:59:39;;;;;;;;;;;;;;;21.34;49.58;102212.50;5130518;27;19923;-42
2022/10/19 11:02:13;;;;;;;;;;;;;;;21.33;49.63;102201.66;5138415;27;19935;-42
2022/10/19 11:04:41;;;;;;;;;;;;;;;21.35;49.65;102194.78;5113033;27;20415;-39
2022/10/19 11:07:11;;;;;;;;;;;;;;;21.35;49.64;102193.94;5117231;27;19962;-41
2022/10/19 11:09:37;;;;;;;;;;;;;;;21.35;49.38;102191.16;5113105;27;20026;-42
2022/10/19 11:12:03;;;;;;;;;;;;;;;21.36;49.84;102181.75;5117032;27;20030;-41
2022/10/19 11:14:38;;;;;;;;;;;;;;;21.33;49.63;102172.03;5091433;28;20877;-41
2022/10/19 11:17:04;;;;;;;;;;;;;;;21.36;50.00;102170.66;5099957;28;20230;-41
2022/10/19 11:19:33;;;;;;;;;;;;;;;21.37;49.33;102166.78;5113019;27;20015;-40
2022/10/19 11:22:03;;;;;;;;;;;;;;;21.37;49.58;102162.06;5112145;27;20039;-41
2022/10/19 11:24:48;;;;;;;;;;;;;;;21.40;49.87;102157.94;5113790;27;19973;-42
2022/10/19 11:27:21;;;;;;;;;;;;;;;21.39;49.72;102161.81;5098598;27;19979;-42
2022/10/19 11:30:06;;;;;;;;;;;;;;;21.39;49.77;102159.88;5100541;28;19978;-40
2022/10/19 11:32:36;;;;;;;;;;;;;;;21.40;50.05;102160.72;5096942;27;20030;-39
2022/10/19 11:35:11;;;;;;;;;;;;;;;21.40;49.83;102157.94;5117379;27;19928;-41
2022/10/19 11:37:56;;;;;;;;;;;;;;;21.40;49.87;102155.19;5112108;27;20400;-40
2022/10/19 11:40:45;;;;;;;;;;;;;;;21.23;47.21;102150.59;5111906;28;19934;-39
2022/10/19 11:43:37;;;;;;;;;;;;;;;21.36;47.64;102143.78;5100720;27;19927;-40
2022/10/19 11:46:22;;;;;;;;;;;;;;;21.39;48.13;102143.25;5085395;27;20462;-40
2022/10/19 11:48:53;;;;;;;;;;;;;;;21.32;47.08;102141.81;5106011;27;20038;-40
2022/10/19 11:51:40;;;;;;;;;;;;;;;21.41;47.24;102132.72;5127108;27;19930;-40
2022/10/19 11:54:09;;;;;;;;;;;;;;;21.42;47.97;102134.41;5107544;27;20069;-41
2022/10/19 11:56:48;;;;;;;;;;;;;;;21.42;47.99;102126.09;5113402;27;19931;-41
2022/10/19 11:59:49;;;;;;;;;;;;;;;21.42;48.15;102117.78;5114445;27;19927;-40
2022/10/19 12:02:34;;;;;;;;;;;;;;;21.43;48.77;102113.91;5098485;28;20006;-41
2022/10/19 12:05:02;;;;;;;;;;;;;;;21.43;48.81;102111.16;5111166;27;20018;-40
2022/10/19 12:07:38;;;;;;;;;;;;;;;21.42;48.99;102116.97;5115325;27;19970;-40
2022/10/19 12:10:24;;;;;;;;;;;;;;;21.27;47.33;102096.31;5114335;27;20021;-43
2022/10/19 12:12:50;;;;;;;;;;;;;;;21.39;47.30;102098.09;5097278;27;20451;-44
2022/10/19 12:15:22;;;;;;;;;;;;;;;21.11;43.70;102089.00;5097445;28;20033;-41
2022/10/19 12:17:48;;;;;;;;;;;;;;;20.46;43.77;102092.81;5122444;27;20516;-38
2022/10/19 12:20:16;;;;;;;;;;;;;;;20.99;44.22;102085.59;5115028;27;20072;-42
2022/10/19 12:22:45;;;;;;;;;;;;;;;21.18;44.12;102081.28;5099262;27;20028;-40
2022/10/19 12:25:11;;;;;;;;;;;;;;;21.26;44.55;102080.78;5101048;27;20458;-41
2022/10/19 12:27:37;;;;;;;;;;;;;;;21.32;44.96;102072.53;5104350;27;20456;-42
2022/10/19 12:30:06;;;;;;;;;;;;;;;21.36;45.70;102071.75;5121445;27;19983;-39
2022/10/19 12:32:35;;;;;;;;;;;;;;;21.39;46.19;102070.38;5111707;27;20293;-42
2022/10/19 12:35:06;;;;;;;;;;;;;;;21.39;46.25;102056.53;5112783;27;20433;-40
2022/10/19 12:37:33;;;;;;;;;;;;;;;21.41;46.44;102057.06;5093638;27;19931;-40
2022/10/19 12:40:04;;;;;;;;;;;;;;;21.39;46.38;102053.75;5113282;27;19935;-40
2022/10/19 12:42:33;;;;;;;;;;;;;;;21.40;46.48;102047.94;5115555;27;19948;-40
2022/10/19 12:45:04;;;;;;;;;;;;;;;21.43;46.58;102043.81;5118344;27;20655;-39
2022/10/19 12:47:29;;;;;;;;;;;;;;;21.43;46.91;102035.47;5119093;27;20014;-41